Terminal Aerodrome Forecast
Issued by NWS Charleston, WV

Home | Current Version | Previous Version | Text Only | Print | Product List | Glossary On
Versions: 1 2 3 4 5 6 7 8 9 10 11 12 13 14 15 16 17 18 19 20 21 22 23 24
000
FTUS41 KRLX 181100
TAFEKN
TAF
KEKN 181140Z 1812/1912 00000KT 4SM BR BKN002 BKN060
     FM181400 00000KT P6SM SCT025
     FM190100 00000KT P6SM BKN250
     FM190600 00000KT 4SM BR SCT040
     FM191100 00000KT 2SM BR SCT001=

USA.gov is the U.S. government's official web portal to all federal, state and local government web resources and services.